createdAt,value
2022-09-02T00:04:30.541Z,100.00
2022-09-02T00:09:32.801Z,100.00
2022-09-02T00:14:36.972Z,100.00
2022-09-02T00:19:39.226Z,100.00
2022-09-02T00:24:43.408Z,100.00
2022-09-02T00:29:47.549Z,100.00
2022-09-02T00:34:51.702Z,100.00
2022-09-02T00:39:55.853Z,100.00
2022-09-02T00:44:59.999Z,100.00
2022-09-02T00:50:04.206Z,100.00
2022-09-02T00:55:08.326Z,100.00
2022-09-02T01:00:12.507Z,100.00
2022-09-02T01:05:16.622Z,100.00
2022-09-02T01:10:20.837Z,100.00
2022-09-02T01:15:24.963Z,100.00
2022-09-02T01:20:29.114Z,100.00
2022-09-02T01:25:33.320Z,100.00
2022-09-02T01:30:37.467Z,100.00
2022-09-02T01:35:41.633Z,100.00
2022-09-02T01:40:45.873Z,100.00
2022-09-02T01:45:49.899Z,100.00
2022-09-02T01:50:54.108Z,100.00
2022-09-02T01:55:58.252Z,100.00
2022-09-02T02:01:02.479Z,100.00
2022-09-02T02:06:04.698Z,100.00
2022-09-02T02:11:08.853Z,100.00
2022-09-02T02:16:11.212Z,100.00
2022-09-02T02:21:15.307Z,100.00
2022-09-02T02:26:19.420Z,100.00
2022-09-02T02:31:23.643Z,100.00
2022-09-02T02:36:27.772Z,100.00
2022-09-02T02:41:31.948Z,100.00
2022-09-02T02:46:36.101Z,100.00
2022-09-02T02:51:40.262Z,100.00
2022-09-02T02:56:44.419Z,100.00
2022-09-02T03:01:48.693Z,100.00
2022-09-02T03:06:52.759Z,100.00
2022-09-02T03:11:56.885Z,100.00
2022-09-02T03:17:01.088Z,100.00
2022-09-02T03:22:05.212Z,100.00
2022-09-02T03:27:09.386Z,100.00
2022-09-02T03:32:14.875Z,100.00
2022-09-02T03:37:17.714Z,100.00
2022-09-02T03:42:21.916Z,100.00
2022-09-02T03:47:26.036Z,100.00
2022-09-02T03:52:30.201Z,100.00
2022-09-02T03:57:34.358Z,100.00
2022-09-02T04:02:36.758Z,100.00
2022-09-02T04:07:40.756Z,100.00
2022-09-02T04:12:44.914Z,100.00
2022-09-02T04:17:49.118Z,100.00
2022-09-02T04:22:53.276Z,100.00
2022-09-02T04:27:57.447Z,100.00
2022-09-02T04:33:01.626Z,100.00
2022-09-02T04:38:05.743Z,100.00
2022-09-02T04:43:09.919Z,100.00
2022-09-02T04:48:14.070Z,100.00
2022-09-02T04:53:18.240Z,100.00
2022-09-02T04:58:22.381Z,100.00
2022-09-02T05:03:26.552Z,100.00
2022-09-02T05:08:30.723Z,100.00
2022-09-02T05:13:34.868Z,100.00
2022-09-02T05:18:39.023Z,100.00
2022-09-02T05:23:43.226Z,100.00
2022-09-02T05:28:47.514Z,100.00
2022-09-02T05:33:53.525Z,100.00
2022-09-02T05:38:55.671Z,100.00
2022-09-02T05:44:01.393Z,100.00
2022-09-02T05:49:02.122Z,100.00
2022-09-02T05:54:06.298Z,100.00
2022-09-02T05:59:10.436Z,100.00
2022-09-02T06:04:14.584Z,100.00
2022-09-02T06:09:18.758Z,100.00
2022-09-02T06:14:22.886Z,100.00
2022-09-02T06:19:27.062Z,100.00
2022-09-02T06:24:31.241Z,100.00
2022-09-02T06:29:35.365Z,100.00
2022-09-02T06:34:39.519Z,100.00
2022-09-02T06:39:43.731Z,100.00
2022-09-02T06:44:47.858Z,100.00
2022-09-02T06:49:52.048Z,100.00
2022-09-02T06:54:56.179Z,100.00
2022-09-02T07:00:02.140Z,100.00
2022-09-02T07:05:04.478Z,100.00
2022-09-02T07:10:08.654Z,100.00
2022-09-02T07:15:12.830Z,100.00
2022-09-02T07:20:16.982Z,100.00
2022-09-02T07:25:21.147Z,100.00
2022-09-02T07:30:25.530Z,100.00
2022-09-02T07:35:27.585Z,100.00
2022-09-02T07:40:31.784Z,100.00
2022-09-02T07:45:34.071Z,100.00
2022-09-02T07:50:38.182Z,100.00
2022-09-02T07:55:42.328Z,100.00
2022-09-02T08:00:46.476Z,100.00
2022-09-02T08:05:50.615Z,100.00
2022-09-02T08:10:54.826Z,100.00
2022-09-02T08:15:58.946Z,100.00
2022-09-02T08:21:03.136Z,100.00
2022-09-02T08:26:07.281Z,100.00
2022-09-02T08:31:11.449Z,100.00
2022-09-02T08:36:15.625Z,100.00
2022-09-02T08:41:19.737Z,100.00
2022-09-02T08:46:23.930Z,100.00
2022-09-02T08:51:28.082Z,100.00
2022-09-02T08:56:32.246Z,100.00
2022-09-02T09:01:36.443Z,100.00
2022-09-02T09:06:40.555Z,100.00
2022-09-02T09:11:44.715Z,100.00
2022-09-02T09:16:48.942Z,100.00
2022-09-02T09:21:53.016Z,100.00
2022-09-02T09:26:57.170Z,100.00
2022-09-02T09:37:03.627Z,100.00
2022-09-02T09:42:05.859Z,100.00
2022-09-02T09:47:14.729Z,100.00
2022-09-02T09:52:12.354Z,100.00
2022-09-02T09:57:14.584Z,100.00
2022-09-02T10:02:16.991Z,100.00
2022-09-02T10:07:20.995Z,100.00
2022-09-02T10:12:25.162Z,100.00
2022-09-02T10:17:29.307Z,100.00
2022-09-02T10:22:44.752Z,100.00
2022-09-02T10:27:37.665Z,100.00
2022-09-02T10:32:41.825Z,100.00
2022-09-02T10:37:45.982Z,100.00
2022-09-02T10:42:50.108Z,100.00
2022-09-02T10:47:54.276Z,100.00
2022-09-02T10:52:58.434Z,100.00
2022-09-02T10:58:02.646Z,100.00
2022-09-02T11:03:06.841Z,100.00
2022-09-02T11:08:10.924Z,99.31
2022-09-02T11:13:15.094Z,94.35
2022-09-02T11:18:21.234Z,83.62
2022-09-02T11:23:23.581Z,74.05
2022-09-02T11:28:27.568Z,74.01
2022-09-02T11:33:31.683Z,73.96
2022-09-02T11:38:35.868Z,84.32
2022-09-02T11:43:40.031Z,78.95
2022-09-02T11:48:42.316Z,83.92
2022-09-02T11:53:46.473Z,82.50
2022-09-02T11:58:50.664Z,75.16
2022-09-02T12:04:16.194Z,72.13
2022-09-02T12:08:58.944Z,73.34
2022-09-02T12:14:04.731Z,72.79
2022-09-02T12:19:07.221Z,88.21
2022-09-02T12:29:15.568Z,84.73
2022-09-02T12:34:19.737Z,83.42
2022-09-02T12:39:23.866Z,74.97
2022-09-02T12:44:28.021Z,81.48
2022-09-02T12:54:36.379Z,84.09
2022-09-02T12:59:38.664Z,90.09
2022-09-02T13:04:49.799Z,68.10
2022-09-02T13:09:52.078Z,79.67
2022-09-02T13:15:03.509Z,86.70
2022-09-02T13:20:14.376Z,79.84
2022-09-02T13:25:25.674Z,72.39
2022-09-02T13:30:38.117Z,68.92
2022-09-02T13:35:50.144Z,67.37
2022-09-02T13:40:59.065Z,74.74
2022-09-02T13:46:01.433Z,79.50
2022-09-02T13:51:05.481Z,74.33
2022-09-02T13:56:09.648Z,75.18
2022-09-02T14:01:13.937Z,73.52
2022-09-02T14:06:18.404Z,62.39
2022-09-02T14:11:22.128Z,77.77
2022-09-02T14:16:26.283Z,78.00
2022-09-02T14:21:30.422Z,76.69
2022-09-02T14:26:34.813Z,67.67
2022-09-02T14:31:38.759Z,69.02
2022-09-02T14:36:42.901Z,63.13
2022-09-02T14:41:47.050Z,60.04
2022-09-02T14:46:51.236Z,64.29
2022-09-02T14:51:55.423Z,71.30
2022-09-02T14:56:59.532Z,73.58
2022-09-02T15:02:03.692Z,64.45
2022-09-02T15:07:07.852Z,65.25
2022-09-02T15:12:12.035Z,68.30
2022-09-02T15:17:16.205Z,57.32
2022-09-02T15:22:20.354Z,69.69
2022-09-02T15:27:24.499Z,63.73
2022-09-02T15:32:26.774Z,52.56
2022-09-02T15:37:30.933Z,69.08
2022-09-02T15:47:39.270Z,58.57
2022-09-02T15:52:43.415Z,70.48
2022-09-02T15:57:47.570Z,66.14
2022-09-02T16:02:51.737Z,64.54
2022-09-02T16:07:55.900Z,64.34
2022-09-02T16:13:00.077Z,67.86
2022-09-02T16:18:04.208Z,66.44
2022-09-02T16:23:08.376Z,59.71
2022-09-02T16:28:12.538Z,56.19
2022-09-02T16:33:16.698Z,50.32
2022-09-02T16:38:20.831Z,47.45
2022-09-02T16:43:25.098Z,42.74
2022-09-02T16:48:29.159Z,49.54
2022-09-02T16:53:33.327Z,49.46
2022-09-02T16:58:37.454Z,54.03
2022-09-02T17:03:41.657Z,61.77
2022-09-02T17:08:45.770Z,61.41
2022-09-02T17:13:49.977Z,66.97
2022-09-02T17:18:54.104Z,87.93
2022-09-02T17:23:56.360Z,94.75
2022-09-02T17:29:00.565Z,89.90
2022-09-02T17:34:02.803Z,98.98
2022-09-02T17:39:07.062Z,100.00
2022-09-02T17:44:11.132Z,100.00
2022-09-02T17:49:16.910Z,100.00
2022-09-02T17:54:19.438Z,100.00
2022-09-02T17:59:23.657Z,100.00
2022-09-02T18:04:27.773Z,100.00
2022-09-02T18:09:31.898Z,100.00
2022-09-02T18:14:36.062Z,100.00
2022-09-02T18:19:40.234Z,100.00
2022-09-02T18:24:44.400Z,100.00
2022-09-02T18:29:48.547Z,100.00
2022-09-02T18:34:52.737Z,100.00
2022-09-02T18:40:01.993Z,100.00
2022-09-02T18:45:00.997Z,100.00
2022-09-02T18:50:05.181Z,100.00
2022-09-02T18:55:09.354Z,100.00
2022-09-02T19:00:13.548Z,100.00
2022-09-02T19:05:17.672Z,100.00
2022-09-02T19:10:21.832Z,100.00
2022-09-02T19:15:25.990Z,100.00
2022-09-02T19:20:28.248Z,100.00
2022-09-02T19:25:32.431Z,100.00
2022-09-02T19:30:34.685Z,100.00
2022-09-02T19:35:38.846Z,100.00
2022-09-02T19:40:42.985Z,100.00
2022-09-02T19:45:47.178Z,100.00
2022-09-02T19:50:51.334Z,100.00
2022-09-02T19:55:55.492Z,100.00
2022-09-02T20:00:59.744Z,100.00
2022-09-02T20:06:03.818Z,100.00
2022-09-02T20:11:07.946Z,100.00
2022-09-02T20:16:12.165Z,100.00
2022-09-02T20:21:16.286Z,100.00
2022-09-02T20:26:20.451Z,100.00
2022-09-02T20:31:24.662Z,100.00
2022-09-02T20:36:28.886Z,100.00
2022-09-02T20:41:32.944Z,100.00
2022-09-02T20:46:37.161Z,100.00
2022-09-02T20:51:41.259Z,100.00
2022-09-02T20:56:45.385Z,100.00
2022-09-02T21:01:49.623Z,100.00
2022-09-02T21:06:53.689Z,100.00
2022-09-02T21:11:57.915Z,100.00
2022-09-02T21:17:00.192Z,100.00
2022-09-02T21:22:04.326Z,100.00
2022-09-02T21:27:06.585Z,100.00
2022-09-02T21:32:10.777Z,100.00
2022-09-02T21:37:14.911Z,100.00
2022-09-02T21:42:19.088Z,100.00
2022-09-02T21:47:23.241Z,100.00
2022-09-02T21:52:27.387Z,100.00
2022-09-02T21:57:31.574Z,100.00
2022-09-02T22:02:35.728Z,100.00
2022-09-02T22:07:39.903Z,100.00
2022-09-02T22:12:46.785Z,100.00
2022-09-02T22:17:48.196Z,100.00
2022-09-02T22:22:59.808Z,100.00
2022-09-02T22:33:00.843Z,100.00
2022-09-02T22:38:04.797Z,100.00
2022-09-02T22:43:08.989Z,100.00
2022-09-02T22:48:13.118Z,100.00
2022-09-02T22:53:17.296Z,100.00
2022-09-02T22:58:21.529Z,100.00
2022-09-02T23:03:25.658Z,100.00
2022-09-02T23:08:29.731Z,100.00
2022-09-02T23:13:32.005Z,100.00
2022-09-02T23:18:36.230Z,100.00
2022-09-02T23:23:40.345Z,100.00
2022-09-02T23:28:42.620Z,100.00
2022-09-02T23:33:46.799Z,100.00
2022-09-02T23:38:50.911Z,100.00
2022-09-02T23:43:55.106Z,100.00
2022-09-02T23:48:59.239Z,100.00
2022-09-02T23:54:03.414Z,100.00
2022-09-02T23:59:07.576Z,100.00
